EmailTwitter


Surface observations / France / LFPO (07149)

Regions: Quebec | Canada | USA | Europe | France | UK | Elsewhere
Station
Display
Info & Location for LFPO (07149) | Help decoding METAR

Weather Conditions observed on 2020/08/09 at 00:18 UTC at PARIS/ORLY, FR (LFPO)

Temperature: 26.0 Celsius.

Dewpoint: 14.0 Celsius.

Relative Humidity: 48%

Humidex: 29.

Winds: Northeast at 9 km/h or 5 knots.

Mean Sea level Pressure: 101.60 kilopascals.

Coded METAR:

LFPO 090018Z 03005KT CAVOK 26/14 Q1016 NOSIG=